Terminal Aerodrome Forecast
Issued by NWS Mt. Holly, NJ

Home | Current Version | Previous Version | Text Only | Print | Product List | Glossary On
Versions: 1 2 3 4 5 6 7 8 9 10 11 12 13 14 15 16 17
870
FTUS41 KPHI 111130
TAFACY
TAF
KACY 111130Z 1112/1212 VRB03KT P6SM OVC100
     FM111600 17006KT P6SM OVC070
     FM120500 17007KT 5SM -RA SCT007 OVC015
     FM120700 18008KT 2SM -RA BR OVC007
     FM121000 20010G18KT 2SM RA BR OVC005=

USA.gov is the U.S. government's official web portal to all federal, state and local government web resources and services.